sensor_id;sensor_type;location;lat;lon;timestamp;temperature;humidity
12233;DHT22;6179;51.748;8.728;2023-07-29T00:00:55;19.20;98.30
12233;DHT22;6179;51.748;8.728;2023-07-29T00:06:56;19.20;98.30
12233;DHT22;6179;51.748;8.728;2023-07-29T00:12:57;19.20;98.30
12233;DHT22;6179;51.748;8.728;2023-07-29T00:18:57;19.10;98.30
12233;DHT22;6179;51.748;8.728;2023-07-29T00:24:58;19.20;98.30
12233;DHT22;6179;51.748;8.728;2023-07-29T00:30:59;19.30;98.30
12233;DHT22;6179;51.748;8.728;2023-07-29T00:37:00;19.90;98.30
12233;DHT22;6179;51.748;8.728;2023-07-29T00:43:00;19.60;98.30
12233;DHT22;6179;51.748;8.728;2023-07-29T00:49:01;19.60;98.30
12233;DHT22;6179;51.748;8.728;2023-07-29T00:55:03;19.50;98.30
12233;DHT22;6179;51.748;8.728;2023-07-29T01:01:04;19.70;98.30
12233;DHT22;6179;51.748;8.728;2023-07-29T01:07:17;19.60;98.30
12233;DHT22;6179;51.748;8.728;2023-07-29T01:25:42;20.10;98.30
12233;DHT22;6179;51.748;8.728;2023-07-29T01:31:44;19.90;98.30
12233;DHT22;6179;51.748;8.728;2023-07-29T01:37:49;20.10;98.30
12233;DHT22;6179;51.748;8.728;2023-07-29T01:43:52;19.90;98.30
12233;DHT22;6179;51.748;8.728;2023-07-29T01:49:53;19.90;98.30
12233;DHT22;6179;51.748;8.728;2023-07-29T01:55:53;20.10;98.30
12233;DHT22;6179;51.748;8.728;2023-07-29T02:01:54;20.20;98.30
12233;DHT22;6179;51.748;8.728;2023-07-29T02:07:55;20.40;98.30
12233;DHT22;6179;51.748;8.728;2023-07-29T02:13:56;20.10;98.30
12233;DHT22;6179;51.748;8.728;2023-07-29T02:19:56;20.10;98.30
12233;DHT22;6179;51.748;8.728;2023-07-29T02:26:00;20.10;98.30
12233;DHT22;6179;51.748;8.728;2023-07-29T02:32:01;20.00;98.30
12233;DHT22;6179;51.748;8.728;2023-07-29T02:38:01;20.00;98.30
12233;DHT22;6179;51.748;8.728;2023-07-29T02:44:02;20.10;98.30
12233;DHT22;6179;51.748;8.728;2023-07-29T02:50:04;20.00;98.30
12233;DHT22;6179;51.748;8.728;2023-07-29T02:56:05;20.20;98.30
12233;DHT22;6179;51.748;8.728;2023-07-29T03:02:06;20.30;98.30
12233;DHT22;6179;51.748;8.728;2023-07-29T03:08:07;19.90;98.30
12233;DHT22;6179;51.748;8.728;2023-07-29T03:14:07;19.90;98.30
12233;DHT22;6179;51.748;8.728;2023-07-29T03:20:08;20.10;98.30
12233;DHT22;6179;51.748;8.728;2023-07-29T03:26:09;20.30;98.30
12233;DHT22;6179;51.748;8.728;2023-07-29T03:32:12;20.10;98.30
12233;DHT22;6179;51.748;8.728;2023-07-29T03:38:13;20.00;98.30
12233;DHT22;6179;51.748;8.728;2023-07-29T03:44:14;20.00;98.30
12233;DHT22;6179;51.748;8.728;2023-07-29T03:50:14;20.10;98.30
12233;DHT22;6179;51.748;8.728;2023-07-29T03:56:15;20.10;98.30
12233;DHT22;6179;51.748;8.728;2023-07-29T04:02:16;19.90;98.30
12233;DHT22;6179;51.748;8.728;2023-07-29T04:08:16;19.80;98.30
12233;DHT22;6179;51.748;8.728;2023-07-29T04:14:17;19.70;98.30
12233;DHT22;6179;51.748;8.728;2023-07-29T04:20:17;19.80;98.30
12233;DHT22;6179;51.748;8.728;2023-07-29T04:26:18;19.70;98.30
12233;DHT22;6179;51.748;8.728;2023-07-29T04:32:19;19.80;98.30
12233;DHT22;6179;51.748;8.728;2023-07-29T04:38:19;19.70;98.30
12233;DHT22;6179;51.748;8.728;2023-07-29T04:44:20;19.80;98.30
12233;DHT22;6179;51.748;8.728;2023-07-29T04:50:21;19.70;98.30
12233;DHT22;6179;51.748;8.728;2023-07-29T04:56:21;19.60;98.30
12233;DHT22;6179;51.748;8.728;2023-07-29T05:02:22;19.70;98.30
12233;DHT22;6179;51.748;8.728;2023-07-29T05:08:22;19.90;98.30
12233;DHT22;6179;51.748;8.728;2023-07-29T05:14:23;20.10;98.30
12233;DHT22;6179;51.748;8.728;2023-07-29T05:20:24;20.20;98.30
12233;DHT22;6179;51.748;8.728;2023-07-29T05:26:24;20.20;98.30
12233;DHT22;6179;51.748;8.728;2023-07-29T05:32:25;20.10;98.30
12233;DHT22;6179;51.748;8.728;2023-07-29T05:38:26;19.90;98.30
12233;DHT22;6179;51.748;8.728;2023-07-29T05:44:26;19.90;98.30
12233;DHT22;6179;51.748;8.728;2023-07-29T05:50:27;20.30;98.30
12233;DHT22;6179;51.748;8.728;2023-07-29T05:56:27;20.30;98.30
12233;DHT22;6179;51.748;8.728;2023-07-29T06:02:28;20.50;98.30
12233;DHT22;6179;51.748;8.728;2023-07-29T06:08:29;20.40;98.30
12233;DHT22;6179;51.748;8.728;2023-07-29T06:14:29;20.40;98.30
12233;DHT22;6179;51.748;8.728;2023-07-29T06:20:30;20.40;98.30
12233;DHT22;6179;51.748;8.728;2023-07-29T06:26:31;20.50;98.30
12233;DHT22;6179;51.748;8.728;2023-07-29T06:32:31;20.50;98.30
12233;DHT22;6179;51.748;8.728;2023-07-29T06:38:32;20.50;98.30
12233;DHT22;6179;51.748;8.728;2023-07-29T06:44:33;20.50;98.30
12233;DHT22;6179;51.748;8.728;2023-07-29T06:50:33;20.50;98.30
12233;DHT22;6179;51.748;8.728;2023-07-29T06:56:34;20.60;98.30
12233;DHT22;6179;51.748;8.728;2023-07-29T07:02:35;20.70;98.30
12233;DHT22;6179;51.748;8.728;2023-07-29T07:08:35;20.80;98.30
12233;DHT22;6179;51.748;8.728;2023-07-29T07:14:37;21.10;98.30
12233;DHT22;6179;51.748;8.728;2023-07-29T07:20:37;20.80;98.30
12233;DHT22;6179;51.748;8.728;2023-07-29T07:26:38;20.50;98.30
12233;DHT22;6179;51.748;8.728;2023-07-29T07:32:38;20.80;98.30
12233;DHT22;6179;51.748;8.728;2023-07-29T07:38:39;21.00;98.30
12233;DHT22;6179;51.748;8.728;2023-07-29T07:44:40;21.10;98.30
12233;DHT22;6179;51.748;8.728;2023-07-29T07:50:40;21.20;98.30
12233;DHT22;6179;51.748;8.728;2023-07-29T07:56:41;21.10;98.30
12233;DHT22;6179;51.748;8.728;2023-07-29T08:02:41;21.20;98.30
12233;DHT22;6179;51.748;8.728;2023-07-29T08:08:42;20.90;98.30
12233;DHT22;6179;51.748;8.728;2023-07-29T08:14:42;20.60;98.30
12233;DHT22;6179;51.748;8.728;2023-07-29T08:20:57;21.00;98.30
12233;DHT22;6179;51.748;8.728;2023-07-29T08:27:04;20.80;98.30
12233;DHT22;6179;51.748;8.728;2023-07-29T08:33:04;21.20;98.30
12233;DHT22;6179;51.748;8.728;2023-07-29T08:39:05;21.30;98.30
12233;DHT22;6179;51.748;8.728;2023-07-29T08:45:07;21.10;98.30
12233;DHT22;6179;51.748;8.728;2023-07-29T08:51:12;21.00;98.30
12233;DHT22;6179;51.748;8.728;2023-07-29T08:57:13;20.80;98.30
12233;DHT22;6179;51.748;8.728;2023-07-29T09:03:14;21.20;98.30
12233;DHT22;6179;51.748;8.728;2023-07-29T09:09:15;21.20;96.50
12233;DHT22;6179;51.748;8.728;2023-07-29T09:15:30;21.50;96.50
12233;DHT22;6179;51.748;8.728;2023-07-29T09:21:32;21.80;94.10
12233;DHT22;6179;51.748;8.728;2023-07-29T09:27:32;21.30;91.90
12233;DHT22;6179;51.748;8.728;2023-07-29T09:33:38;21.30;92.10
12233;DHT22;6179;51.748;8.728;2023-07-29T09:39:44;21.80;91.20
12233;DHT22;6179;51.748;8.728;2023-07-29T09:45:46;21.50;92.10
12233;DHT22;6179;51.748;8.728;2023-07-29T09:51:47;21.70;94.30
12233;DHT22;6179;51.748;8.728;2023-07-29T09:57:47;22.20;92.10
12233;DHT22;6179;51.748;8.728;2023-07-29T10:03:48;22.30;89.60
12233;DHT22;6179;51.748;8.728;2023-07-29T10:09:51;22.60;90.60
12233;DHT22;6179;51.748;8.728;2023-07-29T10:15:56;22.50;86.20
12233;DHT22;6179;51.748;8.728;2023-07-29T10:21:59;22.40;88.40
12233;DHT22;6179;51.748;8.728;2023-07-29T10:28:06;22.70;83.70
12233;DHT22;6179;51.748;8.728;2023-07-29T10:34:07;22.50;84.20
12233;DHT22;6179;51.748;8.728;2023-07-29T10:40:09;22.50;85.20
12233;DHT22;6179;51.748;8.728;2023-07-29T10:46:21;23.30;82.70
12233;DHT22;6179;51.748;8.728;2023-07-29T10:52:41;23.10;80.50
12233;DHT22;6179;51.748;8.728;2023-07-29T10:58:44;23.50;83.20
12233;DHT22;6179;51.748;8.728;2023-07-29T11:04:50;23.70;82.20
12233;DHT22;6179;51.748;8.728;2023-07-29T11:11:02;24.00;80.70
12233;DHT22;6179;51.748;8.728;2023-07-29T11:17:05;24.40;80.80
12233;DHT22;6179;51.748;8.728;2023-07-29T11:23:05;24.30;77.80
12233;DHT22;6179;51.748;8.728;2023-07-29T11:29:06;24.60;78.60
12233;DHT22;6179;51.748;8.728;2023-07-29T11:35:12;25.00;78.30
12233;DHT22;6179;51.748;8.728;2023-07-29T11:41:19;24.80;77.20
12233;DHT22;6179;51.748;8.728;2023-07-29T11:47:20;24.60;76.90
12233;DHT22;6179;51.748;8.728;2023-07-29T11:53:21;24.90;77.10
12233;DHT22;6179;51.748;8.728;2023-07-29T11:59:21;24.50;77.30
12233;DHT22;6179;51.748;8.728;2023-07-29T12:05:22;24.60;77.50
12233;DHT22;6179;51.748;8.728;2023-07-29T12:11:23;24.60;77.30
12233;DHT22;6179;51.748;8.728;2023-07-29T12:17:24;24.80;79.60
12233;DHT22;6179;51.748;8.728;2023-07-29T12:23:26;24.50;76.10
12233;DHT22;6179;51.748;8.728;2023-07-29T12:29:27;24.00;79.80
12233;DHT22;6179;51.748;8.728;2023-07-29T12:35:37;23.90;79.00
12233;DHT22;6179;51.748;8.728;2023-07-29T12:41:38;24.20;78.70
12233;DHT22;6179;51.748;8.728;2023-07-29T12:47:38;24.00;78.10
12233;DHT22;6179;51.748;8.728;2023-07-29T12:53:41;24.40;78.40
12233;DHT22;6179;51.748;8.728;2023-07-29T12:59:42;24.30;78.50
12233;DHT22;6179;51.748;8.728;2023-07-29T13:05:42;24.80;81.50
12233;DHT22;6179;51.748;8.728;2023-07-29T13:11:43;25.40;78.80
12233;DHT22;6179;51.748;8.728;2023-07-29T13:17:43;24.80;79.30
12233;DHT22;6179;51.748;8.728;2023-07-29T13:23:44;25.10;82.20
12233;DHT22;6179;51.748;8.728;2023-07-29T13:29:44;25.20;79.00
12233;DHT22;6179;51.748;8.728;2023-07-29T13:35:46;25.30;77.30
12233;DHT22;6179;51.748;8.728;2023-07-29T13:41:47;24.90;78.40
12233;DHT22;6179;51.748;8.728;2023-07-29T13:47:48;24.90;80.60
12233;DHT22;6179;51.748;8.728;2023-07-29T13:53:49;25.30;79.10
12233;DHT22;6179;51.748;8.728;2023-07-29T13:59:49;25.90;76.70
12233;DHT22;6179;51.748;8.728;2023-07-29T14:05:50;26.10;75.70
12233;DHT22;6179;51.748;8.728;2023-07-29T14:11:50;25.80;75.30
12233;DHT22;6179;51.748;8.728;2023-07-29T14:17:51;25.50;76.30
12233;DHT22;6179;51.748;8.728;2023-07-29T14:23:52;25.90;76.90
12233;DHT22;6179;51.748;8.728;2023-07-29T14:29:52;26.30;74.40
12233;DHT22;6179;51.748;8.728;2023-07-29T14:35:53;26.10;73.30
12233;DHT22;6179;51.748;8.728;2023-07-29T14:41:54;25.90;73.90
12233;DHT22;6179;51.748;8.728;2023-07-29T14:47:54;25.40;76.60
12233;DHT22;6179;51.748;8.728;2023-07-29T14:53:55;25.30;77.50
12233;DHT22;6179;51.748;8.728;2023-07-29T14:59:55;25.90;75.40
12233;DHT22;6179;51.748;8.728;2023-07-29T15:05:56;25.00;78.80
12233;DHT22;6179;51.748;8.728;2023-07-29T15:11:59;24.70;78.40
12233;DHT22;6179;51.748;8.728;2023-07-29T15:18:00;24.10;84.00
12233;DHT22;6179;51.748;8.728;2023-07-29T15:24:00;24.20;81.70
12233;DHT22;6179;51.748;8.728;2023-07-29T15:30:01;24.10;80.40
12233;DHT22;6179;51.748;8.728;2023-07-29T15:36:02;24.30;80.20
12233;DHT22;6179;51.748;8.728;2023-07-29T15:42:03;24.30;78.30
12233;DHT22;6179;51.748;8.728;2023-07-29T15:48:04;24.00;81.00
12233;DHT22;6179;51.748;8.728;2023-07-29T15:54:05;23.70;82.70
12233;DHT22;6179;51.748;8.728;2023-07-29T16:00:06;22.70;89.60
12233;DHT22;6179;51.748;8.728;2023-07-29T16:06:07;20.80;95.50
12233;DHT22;6179;51.748;8.728;2023-07-29T16:12:08;20.20;97.80
12233;DHT22;6179;51.748;8.728;2023-07-29T16:18:08;18.90;98.30
12233;DHT22;6179;51.748;8.728;2023-07-29T16:24:09;18.70;98.30
12233;DHT22;6179;51.748;8.728;2023-07-29T16:30:10;18.60;98.30
12233;DHT22;6179;51.748;8.728;2023-07-29T16:36:11;18.40;98.30
12233;DHT22;6179;51.748;8.728;2023-07-29T16:42:12;18.20;98.30
12233;DHT22;6179;51.748;8.728;2023-07-29T16:48:13;19.20;98.30
12233;DHT22;6179;51.748;8.728;2023-07-29T16:54:13;19.60;98.30
12233;DHT22;6179;51.748;8.728;2023-07-29T17:00:18;19.50;98.30
12233;DHT22;6179;51.748;8.728;2023-07-29T17:06:18;19.00;98.30
12233;DHT22;6179;51.748;8.728;2023-07-29T17:12:19;18.70;98.30
12233;DHT22;6179;51.748;8.728;2023-07-29T17:18:19;18.70;98.30
12233;DHT22;6179;51.748;8.728;2023-07-29T17:24:20;19.00;98.30
12233;DHT22;6179;51.748;8.728;2023-07-29T17:30:21;19.10;98.30
12233;DHT22;6179;51.748;8.728;2023-07-29T17:36:21;19.00;98.30
12233;DHT22;6179;51.748;8.728;2023-07-29T17:42:22;18.70;98.30
12233;DHT22;6179;51.748;8.728;2023-07-29T17:48:22;18.90;98.30
12233;DHT22;6179;51.748;8.728;2023-07-29T17:54:23;19.10;98.30
12233;DHT22;6179;51.748;8.728;2023-07-29T18:00:24;19.10;98.30
12233;DHT22;6179;51.748;8.728;2023-07-29T18:06:24;18.90;98.30
12233;DHT22;6179;51.748;8.728;2023-07-29T18:12:25;18.70;98.30
12233;DHT22;6179;51.748;8.728;2023-07-29T18:18:26;18.80;98.30
12233;DHT22;6179;51.748;8.728;2023-07-29T18:24:27;19.00;98.30
12233;DHT22;6179;51.748;8.728;2023-07-29T18:30:27;19.40;98.30
12233;DHT22;6179;51.748;8.728;2023-07-29T18:36:28;19.50;98.30
12233;DHT22;6179;51.748;8.728;2023-07-29T18:42:30;19.40;98.30
12233;DHT22;6179;51.748;8.728;2023-07-29T18:48:31;19.20;98.30
12233;DHT22;6179;51.748;8.728;2023-07-29T18:54:31;19.10;98.30
12233;DHT22;6179;51.748;8.728;2023-07-29T19:00:34;19.00;98.30
12233;DHT22;6179;51.748;8.728;2023-07-29T19:06:34;19.10;98.30
12233;DHT22;6179;51.748;8.728;2023-07-29T19:12:35;19.10;98.30
12233;DHT22;6179;51.748;8.728;2023-07-29T19:18:38;19.10;98.30
12233;DHT22;6179;51.748;8.728;2023-07-29T19:24:39;19.00;98.30
12233;DHT22;6179;51.748;8.728;2023-07-29T19:30:39;18.90;98.30
12233;DHT22;6179;51.748;8.728;2023-07-29T19:36:40;19.10;98.30
12233;DHT22;6179;51.748;8.728;2023-07-29T19:42:41;19.00;98.30
12233;DHT22;6179;51.748;8.728;2023-07-29T19:48:42;19.00;98.30
12233;DHT22;6179;51.748;8.728;2023-07-29T19:54:42;19.00;98.30
12233;DHT22;6179;51.748;8.728;2023-07-29T20:00:43;18.80;98.30
12233;DHT22;6179;51.748;8.728;2023-07-29T20:06:45;18.90;98.30
12233;DHT22;6179;51.748;8.728;2023-07-29T20:12:46;19.00;98.30
12233;DHT22;6179;51.748;8.728;2023-07-29T20:18:46;18.80;98.30
12233;DHT22;6179;51.748;8.728;2023-07-29T20:24:47;18.80;98.30
12233;DHT22;6179;51.748;8.728;2023-07-29T20:30:57;18.80;98.30
12233;DHT22;6179;51.748;8.728;2023-07-29T20:36:58;18.90;98.30
12233;DHT22;6179;51.748;8.728;2023-07-29T20:42:59;19.00;98.30
12233;DHT22;6179;51.748;8.728;2023-07-29T20:48:59;18.80;98.30
12233;DHT22;6179;51.748;8.728;2023-07-29T20:55:00;18.80;98.30
12233;DHT22;6179;51.748;8.728;2023-07-29T21:01:00;18.80;98.30
12233;DHT22;6179;51.748;8.728;2023-07-29T21:07:03;18.60;98.30
12233;DHT22;6179;51.748;8.728;2023-07-29T21:13:03;18.60;98.30
12233;DHT22;6179;51.748;8.728;2023-07-29T21:19:04;18.70;98.30
12233;DHT22;6179;51.748;8.728;2023-07-29T21:25:07;18.70;98.30
12233;DHT22;6179;51.748;8.728;2023-07-29T21:31:08;18.60;98.30
12233;DHT22;6179;51.748;8.728;2023-07-29T21:37:09;18.60;98.30
12233;DHT22;6179;51.748;8.728;2023-07-29T21:43:09;18.90;98.30
12233;DHT22;6179;51.748;8.728;2023-07-29T21:49:10;18.80;98.30
12233;DHT22;6179;51.748;8.728;2023-07-29T21:55:11;18.90;98.30
12233;DHT22;6179;51.748;8.728;2023-07-29T22:01:11;18.90;98.30
12233;DHT22;6179;51.748;8.728;2023-07-29T22:07:13;18.90;98.30
12233;DHT22;6179;51.748;8.728;2023-07-29T22:13:13;18.90;98.30
12233;DHT22;6179;51.748;8.728;2023-07-29T22:19:14;18.80;98.30
12233;DHT22;6179;51.748;8.728;2023-07-29T22:25:15;18.80;98.30
12233;DHT22;6179;51.748;8.728;2023-07-29T22:31:15;18.50;98.30
12233;DHT22;6179;51.748;8.728;2023-07-29T22:37:16;18.40;98.30
12233;DHT22;6179;51.748;8.728;2023-07-29T22:43:16;18.40;98.30
12233;DHT22;6179;51.748;8.728;2023-07-29T22:49:17;18.50;98.30
12233;DHT22;6179;51.748;8.728;2023-07-29T22:55:17;18.60;98.30
12233;DHT22;6179;51.748;8.728;2023-07-29T23:01:18;18.50;98.30
12233;DHT22;6179;51.748;8.728;2023-07-29T23:07:19;18.60;98.30
12233;DHT22;6179;51.748;8.728;2023-07-29T23:13:19;18.80;98.30
12233;DHT22;6179;51.748;8.728;2023-07-29T23:19:20;18.60;98.30
12233;DHT22;6179;51.748;8.728;2023-07-29T23:25:21;18.60;98.30
12233;DHT22;6179;51.748;8.728;2023-07-29T23:31:21;18.70;98.30
12233;DHT22;6179;51.748;8.728;2023-07-29T23:37:22;18.50;98.30
12233;DHT22;6179;51.748;8.728;2023-07-29T23:43:23;18.40;98.30
12233;DHT22;6179;51.748;8.728;2023-07-29T23:49:23;18.40;98.30
12233;DHT22;6179;51.748;8.728;2023-07-29T23:55:24;18.20;98.30
